Time;durP1;ratioP1;P1;durP2;ratioP2;P2;SDS_P1;SDS_P2;PMS_P1;PMS_P2;Temp;Humidity;BMP_temperature;BMP_pressure;BME280_temperature;BME280_humidity;BME280_pressure;Samples;Min_cycle;Max_cycle;Signal;HPM_P1;HPM_P2
2022/10/24 00:00:44;;;;;;;0.85;0.20;;;;;;;11.70;100.00;98223.91;5038862;28;20029;-74
2022/10/24 00:03:10;;;;;;;0.68;0.30;;;;;;;11.64;100.00;98226.03;5024092;28;20024;-74
2022/10/24 00:05:35;;;;;;;5.13;0.47;;;;;;;11.61;100.00;98243.09;5059576;28;20029;-72
2022/10/24 00:08:01;;;;;;;2.55;0.40;;;;;;;11.54;100.00;98242.81;5056836;28;20043;-74
2022/10/24 00:10:27;;;;;;;1.67;0.40;;;;;;;11.49;100.00;98248.44;5035717;28;20107;-74
2022/10/24 00:12:53;;;;;;;0.82;0.30;;;;;;;11.46;100.00;98257.28;5051208;28;20043;-73
2022/10/24 00:15:19;;;;;;;1.30;0.30;;;;;;;11.50;100.00;98259.06;5030391;28;20758;-75
2022/10/24 00:17:45;;;;;;;0.63;0.20;;;;;;;11.51;100.00;98259.88;5039013;28;20041;-74
2022/10/24 00:20:11;;;;;;;3.47;0.55;;;;;;;11.56;100.00;98281.59;5038548;28;20519;-75
2022/10/24 00:22:37;;;;;;;1.85;0.40;;;;;;;11.53;100.00;98279.50;5049653;28;20029;-76
2022/10/24 00:25:03;;;;;;;6.00;0.47;;;;;;;11.60;100.00;98290.75;5040215;28;20619;-76
2022/10/24 00:27:28;;;;;;;1.67;0.32;;;;;;;11.67;100.00;98301.22;5063389;28;20036;-74
2022/10/24 00:29:54;;;;;;;0.65;0.22;;;;;;;11.72;100.00;98313.94;5057468;28;20074;-74
2022/10/24 00:32:19;;;;;;;0.43;0.22;;;;;;;11.73;100.00;98318.28;5027447;28;20111;-74
2022/10/24 00:34:45;;;;;;;1.45;1.15;;;;;;;11.67;100.00;98312.97;5036190;28;20396;-74
2022/10/24 00:37:10;;;;;;;1.92;0.45;;;;;;;11.76;100.00;98339.53;5048368;28;20042;-77
2022/10/24 00:39:36;;;;;;;0.52;0.38;;;;;;;11.76;100.00;98336.81;5024653;28;20033;-75
2022/10/24 00:42:02;;;;;;;2.70;0.30;;;;;;;11.68;100.00;98343.88;5019503;28;20026;-75
2022/10/24 00:44:30;;;;;;;0.77;0.30;;;;;;;11.66;100.00;98352.41;5028368;28;20032;-73
2022/10/24 00:47:07;;;;;;;5.28;0.50;;;;;;;11.64;100.00;98351.94;5040204;28;20021;-75
2022/10/24 00:49:47;;;;;;;1.55;0.30;;;;;;;11.58;100.00;98364.22;5031316;28;20037;-75
2022/10/24 00:52:19;;;;;;;2.10;0.70;;;;;;;11.49;100.00;98371.59;5026888;28;20043;-76
2022/10/24 00:54:45;;;;;;;0.75;0.22;;;;;;;11.41;100.00;98377.88;5027083;28;20030;-76
2022/10/24 00:57:21;;;;;;;2.33;0.45;;;;;;;11.27;100.00;98378.84;5030415;28;20735;-75
2022/10/24 00:59:51;;;;;;;0.55;0.30;;;;;;;11.26;100.00;98390.13;5039947;28;20029;-75
2022/10/24 01:02:17;;;;;;;1.25;0.30;;;;;;;11.34;100.00;98403.78;5032063;28;20022;-77
2022/10/24 01:04:45;;;;;;;0.95;0.35;;;;;;;11.34;100.00;98401.03;5026973;28;20105;-77
2022/10/24 01:07:19;;;;;;;4.57;0.68;;;;;;;11.45;100.00;98425.38;5021485;28;20125;-77
2022/10/24 01:10:23;;;;;;;3.38;0.60;;;;;;;11.50;100.00;98419.75;5048290;28;20036;-77
2022/10/24 01:17:07;;;;;;;5.57;1.13;;;;;;;11.65;100.00;98451.31;5043885;28;20068;-74
2022/10/24 01:19:57;;;;;;;2.97;1.00;;;;;;;11.65;100.00;98462.25;5029095;28;20029;-76
2022/10/24 01:22:39;;;;;;;4.10;1.25;;;;;;;11.65;100.00;98457.59;5031865;28;20873;-75
2022/10/24 01:25:14;;;;;;;3.53;1.10;;;;;;;11.62;100.00;98474.69;5026908;28;20021;-75
2022/10/24 01:27:59;;;;;;;;;;;;;;;11.63;100.00;98481.75;5046094;28;20037;-78
2022/10/24 01:30:28;;;;;;;3.58;1.02;;;;;;;11.62;100.00;98496.56;5026019;28;19913;-77
2022/10/24 01:33:32;;;;;;;3.92;1.40;;;;;;;11.62;100.00;98502.06;5028194;28;20025;-75
2022/10/24 01:36:04;;;;;;;10.70;1.73;;;;;;;11.59;100.00;98497.19;5038940;28;20431;-75
2022/10/24 01:38:33;;;;;;;5.30;1.20;;;;;;;11.56;100.00;98514.25;5041729;28;20113;-73
2022/10/24 01:41:08;;;;;;;7.22;1.52;;;;;;;11.52;100.00;98513.28;5040082;28;20021;-74
2022/10/24 01:43:40;;;;;;;;;;;;;;;11.48;100.00;98523.28;5041539;28;20032;-74
2022/10/24 01:46:20;;;;;;;13.38;1.80;;;;;;;11.43;100.00;98521.47;5051451;28;19940;-74
2022/10/24 01:48:56;;;;;;;3.03;1.10;;;;;;;11.36;100.00;98526.63;5028198;28;20030;-74
2022/10/24 01:51:26;;;;;;;5.97;1.48;;;;;;;11.33;100.00;98549.13;5042046;28;20029;-74
2022/10/24 01:53:53;;;;;;;6.70;1.75;;;;;;;11.26;100.00;98541.41;5032024;28;20033;-74
2022/10/24 01:56:18;;;;;;;7.20;1.70;;;;;;;11.19;100.00;98554.72;5023651;28;20029;-73
2022/10/24 01:58:46;;;;;;;5.38;1.48;;;;;;;11.12;100.00;98559.84;5034983;28;20033;-74
2022/10/24 02:01:18;;;;;;;5.28;1.27;;;;;;;11.06;100.00;98572.06;5016604;28;20033;-74
2022/10/24 02:03:54;;;;;;;6.63;1.45;;;;;;;10.91;100.00;98559.59;5035527;28;20063;-74
2022/10/24 02:06:31;;;;;;;2.17;1.00;;;;;;;10.83;100.00;98566.59;5038076;28;20041;-75
2022/10/24 02:09:05;;;;;;;3.88;1.15;;;;;;;10.76;100.00;98566.25;5031635;28;20037;-75
2022/10/24 02:11:33;;;;;;;3.85;1.10;;;;;;;10.67;100.00;98566.19;5038815;28;20464;-74
2022/10/24 02:14:08;;;;;;;3.40;1.08;;;;;;;10.62;100.00;98572.59;5032933;28;20065;-73
2022/10/24 02:16:34;;;;;;;7.22;1.10;;;;;;;10.61;100.00;98581.09;5026135;28;20025;-74
2022/10/24 02:18:59;;;;;;;4.60;0.82;;;;;;;10.60;100.00;98576.75;5042026;28;20041;-75
2022/10/24 02:21:40;;;;;;;2.00;0.80;;;;;;;10.58;100.00;98585.25;5039911;28;20021;-75
2022/10/24 02:24:14;;;;;;;2.15;0.70;;;;;;;10.57;100.00;98578.19;5027659;28;20030;-74
2022/10/24 02:26:57;;;;;;;6.20;1.00;;;;;;;10.51;100.00;98584.88;5052403;28;20036;-74
2022/10/24 02:29:38;;;;;;;3.58;0.73;;;;;;;10.42;100.00;98586.75;5034257;28;20449;-77
2022/10/24 02:32:08;;;;;;;4.55;0.98;;;;;;;10.38;100.00;98591.22;5051595;28;20024;-76
2022/10/24 02:34:35;;;;;;;3.83;1.00;;;;;;;10.36;100.00;98599.72;5041576;28;20083;-76
2022/10/24 02:37:04;;;;;;;7.07;0.68;;;;;;;10.35;100.00;98606.31;5051590;28;20033;-75
2022/10/24 02:39:30;;;;;;;2.80;1.42;;;;;;;10.33;100.00;98621.38;5018188;28;20025;-75
2022/10/24 02:41:58;;;;;;;2.28;0.60;;;;;;;10.28;100.00;98620.38;5048825;28;20045;-75
2022/10/24 02:44:24;;;;;;;1.08;0.70;;;;;;;10.28;100.00;98617.66;5042463;28;20048;-74
2022/10/24 02:46:53;;;;;;;4.53;0.90;;;;;;;10.25;100.00;98621.00;5053388;28;20035;-74
2022/10/24 02:49:19;;;;;;;7.18;0.60;;;;;;;10.25;100.00;98631.94;5027363;28;20136;-74
2022/10/24 02:51:45;;;;;;;6.60;1.10;;;;;;;10.33;100.00;98633.09;5020707;28;20061;-74
2022/10/24 02:54:11;;;;;;;2.60;0.70;;;;;;;10.34;100.00;98644.88;5032295;28;20078;-76
2022/10/24 02:56:42;;;;;;;2.50;0.50;;;;;;;10.29;100.00;98646.59;5041320;28;20032;-75
2022/10/24 02:59:08;;;;;;;3.10;0.80;;;;;;;10.28;100.00;98642.22;5035744;28;20476;-76
2022/10/24 03:01:33;;;;;;;4.50;0.93;;;;;;;10.28;100.00;98647.69;5026778;28;20029;-75
2022/10/24 03:04:01;;;;;;;3.35;0.73;;;;;;;10.33;100.00;98660.44;5032352;28;20398;-75
2022/10/24 03:06:26;;;;;;;4.68;0.70;;;;;;;10.35;100.00;98649.22;5010396;28;20038;-76
2022/10/24 03:08:52;;;;;;;8.15;0.95;;;;;;;10.47;100.00;98655.78;5054684;28;20030;-74
2022/10/24 03:11:18;;;;;;;7.43;0.80;;;;;;;10.49;100.00;98652.72;5042292;28;20366;-74
2022/10/24 03:13:45;;;;;;;5.90;0.70;;;;;;;10.49;100.00;98644.53;5039315;28;20064;-73
2022/10/24 03:16:16;;;;;;;6.63;0.60;;;;;;;10.50;100.00;98656.25;5051631;28;20025;-77
2022/10/24 03:18:41;;;;;;;2.08;0.70;;;;;;;10.48;100.00;98653.84;5037314;28;20049;-76
2022/10/24 03:21:09;;;;;;;4.40;1.13;;;;;;;10.47;100.00;98669.44;5043952;28;20079;-75
2022/10/24 03:23:42;;;;;;;1.08;0.55;;;;;;;10.34;100.00;98655.78;5042347;28;20035;-76
2022/10/24 03:26:13;;;;;;;0.40;0.40;;;;;;;10.35;100.00;98680.06;5023119;28;20097;-75
2022/10/24 03:28:39;;;;;;;1.17;0.60;;;;;;;10.34;100.00;98683.13;5055951;28;20025;-74
2022/10/24 03:31:04;;;;;;;4.22;0.63;;;;;;;10.32;100.00;98680.66;5004091;28;20029;-75
2022/10/24 03:33:30;;;;;;;4.18;0.80;;;;;;;10.28;100.00;98680.47;5048219;28;20025;-76
2022/10/24 03:35:56;;;;;;;1.30;0.60;;;;;;;10.37;100.00;98704.38;5025434;28;20060;-75
2022/10/24 03:38:22;;;;;;;2.17;0.77;;;;;;;10.36;100.00;98702.75;5063265;28;20124;-76
2022/10/24 03:40:49;;;;;;;1.42;0.55;;;;;;;10.33;100.00;98697.88;5038497;28;20025;-76
2022/10/24 03:43:15;;;;;;;0.43;0.32;;;;;;;10.28;100.00;98701.53;5017388;28;20025;-74
2022/10/24 03:45:40;;;;;;;0.82;0.50;;;;;;;10.23;100.00;98716.09;5030933;28;20041;-74
2022/10/24 03:48:06;;;;;;;3.35;0.68;;;;;;;10.24;100.00;98723.19;5052965;28;20080;-74
2022/10/24 03:50:33;;;;;;;2.35;0.60;;;;;;;10.34;100.00;98729.56;5040836;28;20100;-75
2022/10/24 03:52:59;;;;;;;0.77;0.20;;;;;;;10.41;100.00;98724.50;5025317;28;20033;-75
2022/10/24 03:55:25;;;;;;;2.67;0.80;;;;;;;10.34;100.00;98721.38;5037522;28;20557;-76
2022/10/24 03:57:51;;;;;;;1.90;0.50;;;;;;;10.38;100.00;98727.84;5040736;28;20475;-76
2022/10/24 04:00:18;;;;;;;5.85;1.30;;;;;;;10.45;100.00;98739.16;5025918;28;20048;-75
2022/10/24 04:02:43;;;;;;;1.42;0.50;;;;;;;10.53;100.00;98740.34;5040750;28;20037;-75
2022/10/24 04:05:09;;;;;;;4.45;0.80;;;;;;;10.59;100.00;98750.09;5037355;28;20021;-76
2022/10/24 04:07:35;;;;;;;2.75;0.68;;;;;;;10.64;100.00;98761.72;5051897;28;20036;-74
2022/10/24 04:10:00;;;;;;;2.00;0.60;;;;;;;10.68;100.00;98756.44;5043934;28;20028;-74
2022/10/24 04:12:26;;;;;;;2.35;0.63;;;;;;;10.70;100.00;98758.84;5019591;28;20026;-74
2022/10/24 04:15:01;;;;;;;4.43;0.65;;;;;;;10.65;100.00;98755.13;5044078;28;20567;-76
2022/10/24 04:17:28;;;;;;;2.58;0.77;;;;;;;10.56;100.00;98756.97;5037721;28;20021;-74
2022/10/24 04:19:53;;;;;;;3.38;0.68;;;;;;;10.51;100.00;98765.25;5030799;28;20064;-75
2022/10/24 04:22:19;;;;;;;4.25;0.88;;;;;;;10.38;100.00;98763.38;5003142;28;20025;-73
2022/10/24 04:24:44;;;;;;;1.30;0.40;;;;;;;10.30;100.00;98775.78;5023837;28;20459;-75
2022/10/24 04:27:10;;;;;;;13.02;0.70;;;;;;;10.19;100.00;98779.84;5015677;28;20036;-76
2022/10/24 04:29:35;;;;;;;3.10;0.77;;;;;;;10.07;100.00;98766.69;5027961;28;20024;-75
2022/10/24 04:32:01;;;;;;;1.45;0.73;;;;;;;10.10;100.00;98783.28;5011217;28;20124;-74
2022/10/24 04:34:26;;;;;;;3.03;0.57;;;;;;;10.17;100.00;98788.34;5028420;28;20165;-74
2022/10/24 04:36:52;;;;;;;8.10;0.80;;;;;;;10.15;100.00;98790.56;5042965;28;20060;-73
2022/10/24 04:39:18;;;;;;;3.72;0.50;;;;;;;10.09;100.00;98786.28;5036436;28;20032;-74
2022/10/24 04:41:45;;;;;;;2.60;0.40;;;;;;;10.03;100.00;98792.97;5051625;28;20043;-75
2022/10/24 04:44:10;;;;;;;1.40;0.43;;;;;;;9.94;100.00;98790.97;5032997;28;20490;-74
2022/10/24 04:46:36;;;;;;;1.10;0.30;;;;;;;9.90;100.00;98797.31;5045381;28;20033;-74
2022/10/24 04:49:02;;;;;;;1.75;0.60;;;;;;;9.83;100.00;98805.91;5028057;28;20032;-74
2022/10/24 04:51:30;;;;;;;2.30;0.70;;;;;;;9.79;100.00;98807.63;5042713;28;20079;-74
2022/10/24 04:53:55;;;;;;;3.10;0.43;;;;;;;9.74;100.00;98807.72;5060867;28;20028;-74
2022/10/24 04:56:21;;;;;;;1.10;0.47;;;;;;;9.69;100.00;98810.53;5054840;28;20037;-73
2022/10/24 04:58:47;;;;;;;4.35;0.90;;;;;;;9.66;100.00;98813.84;5013246;28;20534;-72
2022/10/24 05:01:12;;;;;;;3.67;1.08;;;;;;;9.65;100.00;98814.97;5010657;28;20088;-75
2022/10/24 05:03:38;;;;;;;1.17;0.38;;;;;;;9.63;100.00;98818.00;5041630;28;20040;-73
2022/10/24 05:06:03;;;;;;;0.85;0.40;;;;;;;9.60;100.00;98819.38;5037852;28;20037;-74
2022/10/24 05:08:31;;;;;;;2.33;0.40;;;;;;;9.55;100.00;98827.69;5045190;28;20571;-75
2022/10/24 05:10:57;;;;;;;4.13;0.50;;;;;;;9.47;100.00;98824.81;5055764;28;20026;-75
2022/10/24 05:13:22;;;;;;;2.97;0.40;;;;;;;9.47;100.00;98836.53;5022940;28;20033;-74
2022/10/24 05:15:48;;;;;;;1.83;0.52;;;;;;;9.41;100.00;98837.72;5021591;28;20028;-75
2022/10/24 05:18:13;;;;;;;0.80;0.40;;;;;;;9.35;100.00;98836.19;5024427;28;20056;-74
2022/10/24 05:20:39;;;;;;;3.15;0.50;;;;;;;9.34;100.00;98853.66;5024331;28;20032;-74
2022/10/24 05:23:04;;;;;;;1.27;0.50;;;;;;;9.22;100.00;98837.75;5037797;28;20036;-74
2022/10/24 05:25:30;;;;;;;2.72;0.50;;;;;;;9.20;100.00;98845.38;5046652;28;20032;-74
2022/10/24 05:27:55;;;;;;;1.70;0.70;;;;;;;9.28;100.00;98854.84;5029850;28;20052;-73
2022/10/24 05:30:23;;;;;;;2.00;0.50;;;;;;;9.25;100.00;98854.31;5042804;28;20037;-74
2022/10/24 05:32:48;;;;;;;2.63;0.60;;;;;;;9.26;100.00;98853.22;5030027;28;20041;-74
2022/10/24 05:35:14;;;;;;;3.10;0.68;;;;;;;9.33;100.00;98852.84;5029629;28;20160;-73
2022/10/24 05:37:39;;;;;;;3.78;0.50;;;;;;;9.42;100.00;98861.19;5038222;28;21404;-75
2022/10/24 05:40:09;;;;;;;5.30;0.90;;;;;;;9.54;100.00;98869.72;5048968;28;20049;-74
2022/10/24 05:42:36;;;;;;;0.90;0.45;;;;;;;9.54;100.00;98853.34;5044519;28;20022;-75
2022/10/24 05:45:02;;;;;;;3.05;0.95;;;;;;;9.61;100.00;98863.88;5013280;28;20032;-74
2022/10/24 05:47:28;;;;;;;3.50;0.60;;;;;;;9.70;100.00;98866.75;5041763;28;20033;-75
2022/10/24 05:49:53;;;;;;;4.57;0.90;;;;;;;9.80;100.00;98872.03;5018144;28;20025;-76
2022/10/24 05:52:18;;;;;;;5.55;0.75;;;;;;;9.84;100.00;98873.06;5032796;28;20407;-74
2022/10/24 05:54:44;;;;;;;2.78;0.50;;;;;;;9.88;100.00;98876.78;5032874;28;21383;-75
2022/10/24 05:57:09;;;;;;;1.55;0.60;;;;;;;9.92;100.00;98886.00;5011435;28;20021;-74
2022/10/24 05:59:35;;;;;;;2.10;0.70;;;;;;;9.99;100.00;98890.25;5036170;28;20037;-74
2022/10/24 06:02:00;;;;;;;3.30;0.80;;;;;;;10.02;100.00;98895.94;5012685;28;20033;-73
2022/10/24 06:04:25;;;;;;;3.22;0.70;;;;;;;10.07;100.00;98900.50;5036746;28;20033;-74
2022/10/24 06:06:51;;;;;;;3.83;0.60;;;;;;;10.09;100.00;98895.56;5020913;28;20112;-75
2022/10/24 06:09:17;;;;;;;4.55;0.80;;;;;;;10.07;100.00;98897.78;5014543;28;20479;-74
2022/10/24 06:11:42;;;;;;;1.92;0.50;;;;;;;10.00;100.00;98891.91;5022452;28;20050;-74
2022/10/24 06:14:08;;;;;;;1.73;0.60;;;;;;;9.98;100.00;98894.94;5024254;28;20506;-75
2022/10/24 06:16:36;;;;;;;4.35;0.77;;;;;;;9.93;100.00;98898.56;5040199;28;20052;-74
2022/10/24 06:19:02;;;;;;;2.83;0.73;;;;;;;9.90;100.00;98901.88;5022101;28;20097;-75
2022/10/24 06:21:27;;;;;;;2.03;0.63;;;;;;;9.83;100.00;98896.00;5033099;28;20111;-75
2022/10/24 06:23:53;;;;;;;2.78;0.63;;;;;;;9.83;100.00;98893.28;5004293;28;20488;-75
2022/10/24 06:26:19;;;;;;;7.35;0.60;;;;;;;9.79;100.00;98908.63;5003444;28;20026;-74
2022/10/24 06:28:44;;;;;;;2.75;0.55;;;;;;;9.75;100.00;98900.22;5042508;28;20033;-76
2022/10/24 06:31:11;;;;;;;3.33;0.60;;;;;;;9.72;100.00;98913.66;5034757;28;20048;-76
2022/10/24 06:33:38;;;;;;;4.45;0.73;;;;;;;9.69;100.00;98914.25;5024151;28;20041;-75
2022/10/24 06:36:05;;;;;;;9.82;0.82;;;;;;;9.69;100.00;98927.88;5035234;28;20436;-74
2022/10/24 06:38:32;;;;;;;2.38;1.02;;;;;;;9.61;100.00;98919.28;5028296;28;20026;-75
2022/10/24 06:40:58;;;;;;;1.88;0.60;;;;;;;9.66;100.00;98931.22;5021423;28;20104;-75
2022/10/24 06:43:23;;;;;;;4.28;0.73;;;;;;;9.76;100.00;98942.78;5021014;28;20099;-75
2022/10/24 06:45:49;;;;;;;4.20;0.60;;;;;;;9.77;100.00;98938.16;5030377;28;20052;-74
2022/10/24 06:48:17;;;;;;;6.10;0.80;;;;;;;9.81;100.00;98947.34;5038063;28;20036;-75
2022/10/24 06:50:42;;;;;;;2.42;0.50;;;;;;;9.76;100.00;98941.97;5028999;28;20049;-76
2022/10/24 06:53:08;;;;;;;4.03;0.88;;;;;;;9.74;100.00;98941.47;5030201;28;20009;-74
2022/10/24 06:55:36;;;;;;;2.08;0.70;;;;;;;9.80;100.00;98948.47;5038719;28;20033;-74
2022/10/24 06:58:02;;;;;;;4.43;0.65;;;;;;;9.77;100.00;98954.53;5032641;28;20025;-74
2022/10/24 07:00:27;;;;;;;7.85;1.23;;;;;;;9.76;100.00;98958.34;5036697;28;20427;-74
2022/10/24 07:02:52;;;;;;;3.20;0.85;;;;;;;9.76;100.00;98966.53;5039567;28;20526;-76
2022/10/24 07:05:19;;;;;;;7.00;0.85;;;;;;;9.76;100.00;98964.63;5020563;28;20034;-76
2022/10/24 07:07:45;;;;;;;3.53;0.70;;;;;;;9.74;100.00;98955.13;5033520;28;20502;-74
2022/10/24 07:10:13;;;;;;;4.00;0.75;;;;;;;9.79;100.00;98968.69;5028100;28;20100;-75
2022/10/24 07:12:44;;;;;;;5.45;0.95;;;;;;;9.85;100.00;98975.69;5031422;28;20029;-74
2022/10/24 07:15:10;;;;;;;4.78;1.00;;;;;;;9.94;100.00;98981.28;5023969;28;20056;-76
2022/10/24 07:17:41;;;;;;;4.38;0.70;;;;;;;10.18;100.00;98981.19;5031283;28;20025;-75
2022/10/24 07:20:07;;;;;;;5.47;1.15;;;;;;;10.71;100.00;98982.72;5041807;28;20021;-74
2022/10/24 07:22:33;;;;;;;4.05;1.15;;;;;;;11.27;100.00;98999.97;5031639;28;20033;-76
2022/10/24 07:24:58;;;;;;;6.82;1.20;;;;;;;11.77;100.00;98988.22;5025154;28;20026;-76
2022/10/24 07:27:24;;;;;;;2.08;0.80;;;;;;;11.73;100.00;98994.63;5005473;28;20029;-73
2022/10/24 07:29:50;;;;;;;2.85;0.70;;;;;;;11.34;100.00;99000.34;5032116;28;20038;-75
2022/10/24 07:32:17;;;;;;;8.40;0.88;;;;;;;11.02;100.00;99017.69;5002520;28;20041;-75
2022/10/24 07:34:43;;;;;;;6.40;1.08;;;;;;;10.81;100.00;99017.28;5045203;28;20044;-73
2022/10/24 07:37:09;;;;;;;5.65;0.77;;;;;;;10.65;100.00;99016.75;5043646;28;20478;-74
2022/10/24 07:39:34;;;;;;;5.68;0.88;;;;;;;10.60;100.00;99025.88;5015317;28;20023;-74
2022/10/24 07:42:00;;;;;;;5.00;0.85;;;;;;;10.52;100.00;99020.28;5026224;28;20029;-73
2022/10/24 07:44:25;;;;;;;8.50;0.98;;;;;;;10.55;100.00;99025.13;5019694;28;20032;-74
2022/10/24 07:46:50;;;;;;;8.23;1.42;;;;;;;10.58;100.00;99033.53;5016393;28;20044;-75
2022/10/24 07:49:18;;;;;;;5.05;0.85;;;;;;;10.64;100.00;99035.09;5024196;28;20064;-73
2022/10/24 07:51:56;;;;;;;3.78;0.68;;;;;;;10.63;100.00;99041.66;5029798;28;20033;-74
2022/10/24 07:54:33;;;;;;;2.72;0.70;;;;;;;10.70;100.00;99034.97;5044268;28;20036;-73
2022/10/24 07:57:06;;;;;;;3.13;0.73;;;;;;;10.88;100.00;99053.25;5040717;28;20040;-74
2022/10/24 07:59:31;;;;;;;4.70;0.68;;;;;;;10.97;100.00;99048.69;5055671;28;20029;-72
2022/10/24 08:01:57;;;;;;;3.55;0.75;;;;;;;11.14;100.00;99044.56;5047111;28;20105;-73
2022/10/24 08:04:29;;;;;;;1.85;0.70;;;;;;;12.31;100.00;99054.13;5024211;28;20585;-73
2022/10/24 08:06:59;;;;;;;7.40;0.88;;;;;;;14.15;100.00;99065.84;5034614;28;20051;-73
2022/10/24 08:09:25;;;;;;;6.55;1.10;;;;;;;15.49;100.00;99066.81;5051458;28;20074;-74
2022/10/24 08:11:50;;;;;;;6.63;0.55;;;;;;;16.71;96.27;99073.41;5040894;28;20044;-72
2022/10/24 08:14:16;;;;;;;2.72;0.68;;;;;;;17.60;90.86;99091.44;5021307;28;20025;-73
2022/10/24 08:16:41;;;;;;;4.85;1.30;;;;;;;18.28;86.26;99088.03;5026171;28;20483;-71
2022/10/24 08:19:07;;;;;;;6.07;0.88;;;;;;;18.82;82.25;99100.59;4995718;28;20096;-72
2022/10/24 08:21:33;;;;;;;3.75;0.90;;;;;;;19.56;82.83;99099.34;5034708;28;20018;-72
2022/10/24 08:23:59;;;;;;;3.67;0.70;;;;;;;20.40;78.87;99113.97;5018643;28;20071;-72
2022/10/24 08:26:25;;;;;;;4.45;0.65;;;;;;;20.95;78.36;99104.75;5027517;28;20487;-72
2022/10/24 08:28:52;;;;;;;5.22;1.05;;;;;;;21.56;75.83;99122.53;5031478;28;20061;-73
2022/10/24 08:31:20;;;;;;;1.38;0.40;;;;;;;22.19;74.07;99121.09;5045336;28;20076;-71
2022/10/24 08:33:46;;;;;;;4.75;0.98;;;;;;;22.76;73.44;99115.50;5028904;28;20052;-71
2022/10/24 08:36:24;;;;;;;4.05;0.70;;;;;;;23.23;73.17;99120.81;5034030;28;20044;-68
2022/10/24 08:38:54;;;;;;;7.10;0.93;;;;;;;24.07;70.15;99118.31;5031161;28;20017;-71
2022/10/24 08:41:25;;;;;;;8.00;0.90;;;;;;;24.26;65.31;99125.59;5043481;28;20020;-72
2022/10/24 08:43:54;;;;;;;4.75;0.80;;;;;;;24.72;64.34;99132.63;5041329;28;20025;-70
2022/10/24 08:46:40;;;;;;;8.88;0.77;;;;;;;24.37;65.80;99134.03;5029617;28;20033;-71
2022/10/24 08:49:17;;;;;;;3.08;0.98;;;;;;;23.44;68.50;99129.38;5064676;28;20033;-70
2022/10/24 08:51:53;;;;;;;3.63;1.15;;;;;;;22.46;68.12;99141.41;5028375;28;20148;-71
2022/10/24 08:54:29;;;;;;;7.03;1.17;;;;;;;21.84;71.66;99138.88;5038665;28;20029;-70
2022/10/24 08:56:58;;;;;;;9.27;1.45;;;;;;;22.11;68.52;99142.47;5038744;28;20029;-71
2022/10/24 08:59:27;;;;;;;5.57;1.10;;;;;;;21.50;70.13;99135.91;5029461;28;20032;-73
2022/10/24 09:02:07;;;;;;;7.13;1.08;;;;;;;21.13;69.56;99144.81;5032850;28;20032;-71
2022/10/24 09:04:44;;;;;;;5.45;1.25;;;;;;;19.95;70.75;99143.91;5035290;28;20029;-72
2022/10/24 09:07:21;;;;;;;4.00;1.33;;;;;;;19.08;77.04;99151.16;5046015;28;20017;-72
2022/10/24 09:09:57;;;;;;;10.88;1.40;;;;;;;19.00;74.84;99155.72;5035732;28;20025;-73
2022/10/24 09:12:41;;;;;;;3.63;0.85;;;;;;;19.27;75.12;99154.06;5043919;28;20041;-74
2022/10/24 09:15:18;;;;;;;4.32;1.13;;;;;;;19.70;76.27;99155.16;5032367;28;20041;-73
2022/10/24 09:17:53;;;;;;;2.78;0.80;;;;;;;20.90;72.69;99159.44;5057677;28;20059;-71
2022/10/24 09:20:32;;;;;;;11.20;1.33;;;;;;;22.20;72.46;99172.84;5032723;28;20029;-72
2022/10/24 09:23:07;;;;;;;8.27;1.00;;;;;;;23.05;62.91;99179.13;5058832;28;20025;-72
2022/10/24 09:25:51;;;;;;;9.98;1.30;;;;;;;23.37;65.18;99168.34;5040295;28;20167;-72
2022/10/24 09:28:31;;;;;;;6.22;1.00;;;;;;;24.09;64.07;99160.59;5033830;28;20037;-73
2022/10/24 09:30:59;;;;;;;10.05;1.15;;;;;;;25.32;60.25;99178.78;5032161;28;20506;-72
2022/10/24 09:33:36;;;;;;;8.15;1.52;;;;;;;25.82;64.81;99178.03;5044091;28;20056;-77
2022/10/24 09:36:03;;;;;;;7.68;1.50;;;;;;;26.22;56.98;99172.44;5039236;28;20430;-74
2022/10/24 09:38:37;;;;;;;6.57;1.50;;;;;;;26.85;58.71;99185.88;5044507;28;20091;-72
2022/10/24 09:41:23;;;;;;;7.78;0.80;;;;;;;26.03;62.57;99182.06;5056179;28;20363;-71
2022/10/24 09:44:26;;;;;;;5.47;0.90;;;;;;;25.17;70.52;99166.72;5047691;28;20056;-71
2022/10/24 09:46:52;;;;;;;8.23;1.27;;;;;;;24.02;61.85;99171.72;5053061;28;20044;-75
2022/10/24 09:49:24;;;;;;;4.53;1.02;;;;;;;23.15;65.61;99176.50;5020512;28;20021;-73
2022/10/24 09:52:01;;;;;;;8.30;1.65;;;;;;;22.06;63.54;99178.97;5048247;28;20029;-72
2022/10/24 09:54:30;;;;;;;8.57;1.50;;;;;;;20.88;64.73;99177.66;5031780;28;20528;-72
2022/10/24 09:57:10;;;;;;;10.15;1.50;;;;;;;20.84;64.69;99182.34;5050874;28;20040;-72
2022/10/24 09:59:43;;;;;;;5.53;1.02;;;;;;;20.45;69.29;99182.28;5054296;28;20032;-71
2022/10/24 10:02:12;;;;;;;6.78;1.50;;;;;;;20.47;68.70;99180.75;5045074;28;20013;-72
2022/10/24 10:04:39;;;;;;;5.60;1.20;;;;;;;20.54;67.80;99185.66;5033744;28;20025;-71
2022/10/24 10:07:11;;;;;;;8.35;1.27;;;;;;;20.47;67.88;99188.25;5037309;28;20033;-72
2022/10/24 10:09:53;;;;;;;12.88;1.80;;;;;;;20.55;69.59;99176.16;5048533;28;20037;-72
2022/10/24 10:12:33;;;;;;;11.25;2.72;;;;;;;20.72;67.14;99186.88;5059329;28;20029;-72
2022/10/24 10:15:04;;;;;;;6.97;1.30;;;;;;;21.41;67.43;99194.56;5034251;28;20021;-72
2022/10/24 10:17:30;;;;;;;13.23;1.55;;;;;;;21.68;62.83;99199.44;5041810;28;20037;-74
2022/10/24 10:19:57;;;;;;;9.93;1.50;;;;;;;21.17;63.38;99200.47;5049897;28;20085;-71
2022/10/24 10:22:26;;;;;;;14.32;1.50;;;;;;;21.67;62.27;99218.09;5028039;28;20033;-71
2022/10/24 10:24:53;;;;;;;10.00;1.48;;;;;;;22.90;68.26;99208.84;5041912;28;20426;-73
2022/10/24 10:27:33;;;;;;;9.20;1.67;;;;;;;24.31;63.40;99206.25;5030346;28;20102;-72
2022/10/24 10:30:16;;;;;;;11.68;2.08;;;;;;;26.47;57.85;99214.41;5050833;28;20459;-73
2022/10/24 10:33:08;;;;;;;12.95;1.77;;;;;;;28.59;53.91;99226.41;5030015;28;20028;-72
2022/10/24 10:35:52;;;;;;;12.10;1.67;;;;;;;30.19;48.24;99223.03;5013065;28;20038;-72
2022/10/24 10:38:42;;;;;;;21.38;2.00;;;;;;;31.64;45.75;99228.25;4997766;28;20048;-71
2022/10/24 10:41:22;;;;;;;11.45;1.90;;;;;;;32.22;48.97;99237.38;4995523;28;20038;-70
2022/10/24 10:44:19;;;;;;;9.93;2.10;;;;;;;33.22;53.49;99228.97;5011574;28;20090;-72
2022/10/24 10:47:01;;;;;;;8.07;1.67;;;;;;;32.51;40.39;99229.69;5007186;28;20201;-70
2022/10/24 10:49:30;;;;;;;7.85;2.00;;;;;;;31.01;47.44;99234.81;4999250;28;20018;-71
2022/10/24 10:52:05;;;;;;;9.18;2.03;;;;;;;30.88;41.58;99233.84;5003456;28;20022;-71
2022/10/24 10:55:09;;;;;;;12.45;2.35;;;;;;;30.68;47.39;99222.56;5015419;28;20156;-74
2022/10/24 10:57:47;;;;;;;10.40;2.20;;;;;;;31.05;47.25;99229.91;5017377;28;20087;-73
2022/10/24 11:00:22;;;;;;;9.32;2.13;;;;;;;29.91;46.51;99225.13;5026831;28;20057;-72
2022/10/24 11:03:15;;;;;;;8.93;2.00;;;;;;;28.00;55.45;99222.50;5024760;28;20030;-73
2022/10/24 11:06:03;;;;;;;14.68;2.45;;;;;;;26.37;61.68;99230.06;5013125;28;20046;-74
2022/10/24 11:08:53;;;;;;;13.05;2.15;;;;;;;29.45;60.06;99229.41;5010533;28;20107;-74
2022/10/24 11:11:30;;;;;;;9.00;2.00;;;;;;;31.75;57.21;99242.09;5014216;28;20029;-73
2022/10/24 11:13:58;;;;;;;10.35;2.38;;;;;;;32.65;43.16;99239.03;5013156;28;20024;-73
2022/10/24 11:16:27;;;;;;;13.93;2.03;;;;;;;34.30;43.30;99238.13;5018045;28;20029;-73
2022/10/24 11:18:58;;;;;;;4.80;1.48;;;;;;;31.77;40.54;99236.78;5014783;28;20038;-74
2022/10/24 11:21:26;;;;;;;8.70;1.95;;;;;;;32.40;46.59;99234.84;5008888;28;20088;-74
2022/10/24 11:24:03;;;;;;;10.60;2.47;;;;;;;34.95;48.57;99237.44;5028761;28;20054;-73
2022/10/24 11:26:44;;;;;;;14.40;3.42;;;;;;;36.41;40.81;99247.56;4998451;28;20034;-72
2022/10/24 11:29:33;;;;;;;5.35;1.38;;;;;;;37.85;43.43;99243.84;4999100;28;20034;-72
2022/10/24 11:32:24;;;;;;;10.82;2.28;;;;;;;38.45;42.35;99233.50;5017808;28;20033;-74
2022/10/24 11:35:02;;;;;;;9.68;2.50;;;;;;;37.76;39.87;99235.34;5021069;28;20051;-73
2022/10/24 11:37:41;;;;;;;17.08;2.20;;;;;;;37.30;45.61;99245.63;5037741;28;20025;-75
2022/10/24 11:40:11;;;;;;;11.40;1.80;;;;;;;36.85;37.57;99248.03;5024013;28;20033;-74
2022/10/24 11:42:48;;;;;;;8.65;1.88;;;;;;;35.84;43.73;99228.78;5045237;28;20048;-75
2022/10/24 11:45:16;;;;;;;8.48;1.50;;;;;;;35.81;36.41;99226.88;5037788;28;20018;-73
2022/10/24 11:47:49;;;;;;;9.63;1.45;;;;;;;35.62;39.44;99238.13;5034072;28;20080;-73